createdAt,value
2018-06-05T00:02:03.874Z,16.50
2018-06-05T00:04:33.588Z,16.40
2018-06-05T00:07:03.226Z,16.47
2018-06-05T00:09:32.872Z,16.46
2018-06-05T00:12:02.613Z,16.40
2018-06-05T00:14:32.278Z,16.38
2018-06-05T00:17:01.912Z,16.46
2018-06-05T00:19:31.324Z,16.40
2018-06-05T00:22:00.985Z,16.29
2018-06-05T00:24:30.737Z,16.21
2018-06-05T00:27:00.366Z,16.09
2018-06-05T00:29:30.196Z,16.04
2018-06-05T00:31:59.813Z,16.01
2018-06-05T00:34:29.489Z,16.00
2018-06-05T00:36:58.898Z,15.96
2018-06-05T00:39:28.573Z,15.87
2018-06-05T00:41:58.219Z,15.81
2018-06-05T00:44:27.920Z,15.79
2018-06-05T00:46:57.656Z,15.77
2018-06-05T00:49:27.040Z,15.72
2018-06-05T00:52:08.455Z,15.61
2018-06-05T00:54:38.138Z,15.52
2018-06-05T00:57:07.906Z,15.46
2018-06-05T00:59:37.511Z,15.44
2018-06-05T01:02:07.302Z,15.53
2018-06-05T01:04:36.980Z,15.48
2018-06-05T01:07:06.869Z,15.41
2018-06-05T01:09:36.558Z,15.41
2018-06-05T01:12:06.531Z,15.60
2018-06-05T01:14:36.168Z,15.54
2018-06-05T01:17:05.851Z,15.52
2018-06-05T01:21:56.569Z,15.40
2018-06-05T01:24:26.292Z,15.45
2018-06-05T01:26:55.934Z,15.35
2018-06-05T01:29:25.607Z,15.27
2018-06-05T01:31:55.316Z,15.16
2018-06-05T01:34:24.975Z,15.12
2018-06-05T01:36:54.732Z,15.13
2018-06-05T01:39:24.389Z,15.12
2018-06-05T01:41:54.008Z,15.10
2018-06-05T01:44:23.369Z,15.36
2018-06-05T01:46:52.973Z,15.57
2018-06-05T01:49:22.681Z,15.64
2018-06-05T01:51:52.318Z,15.72
2018-06-05T01:54:22.027Z,15.83
2018-06-05T01:56:51.762Z,15.83
2018-06-05T01:59:21.443Z,15.95
2018-06-05T02:01:51.155Z,16.00
2018-06-05T02:04:20.781Z,16.05
2018-06-05T02:06:50.512Z,16.09
2018-06-05T02:09:20.177Z,16.13
2018-06-05T02:11:49.841Z,16.23
2018-06-05T02:14:19.466Z,16.29
2018-06-05T02:16:49.101Z,16.18
2018-06-05T02:19:18.812Z,16.14
2018-06-05T02:21:48.473Z,16.12
2018-06-05T02:24:18.115Z,16.19
2018-06-05T02:26:47.775Z,16.34
2018-06-05T02:29:17.399Z,16.32
2018-06-05T02:31:46.994Z,16.40
2018-06-05T02:34:16.723Z,16.56
2018-06-05T02:36:46.370Z,16.70
2018-06-05T02:39:16.033Z,16.76
2018-06-05T02:41:45.652Z,16.70
2018-06-05T02:44:15.328Z,16.72
2018-06-05T02:46:45.003Z,16.78
2018-06-05T02:49:14.632Z,16.73
2018-06-05T02:51:44.290Z,16.61
2018-06-05T02:54:13.950Z,16.44
2018-06-05T02:56:43.711Z,16.36
2018-06-05T02:59:13.349Z,16.30
2018-06-05T03:01:43.064Z,16.27
2018-06-05T03:04:12.852Z,16.35
2018-06-05T03:06:42.532Z,16.38
2018-06-05T03:09:11.888Z,16.49
2018-06-05T03:11:41.596Z,16.48
2018-06-05T03:14:11.214Z,16.63
2018-06-05T03:16:40.835Z,16.86
2018-06-05T03:19:10.533Z,16.75
2018-06-05T03:21:40.159Z,16.67
2018-06-05T03:24:09.840Z,16.66
2018-06-05T03:26:39.468Z,16.79
2018-06-05T03:29:09.093Z,16.77
2018-06-05T03:31:38.720Z,16.68
2018-06-05T03:34:08.429Z,16.66
2018-06-05T03:36:38.165Z,16.73
2018-06-05T03:39:07.877Z,16.77
2018-06-05T03:41:37.241Z,16.74
2018-06-05T03:44:06.974Z,16.88
2018-06-05T03:46:36.944Z,16.85
2018-06-05T03:49:07.012Z,16.88
2018-06-05T03:51:36.699Z,16.92
2018-06-05T03:54:06.575Z,17.05
2018-06-05T03:56:35.827Z,17.01
2018-06-05T03:59:05.537Z,17.04
2018-06-05T04:01:35.340Z,17.05
2018-06-05T04:04:05.109Z,17.09
2018-06-05T04:06:34.764Z,17.31
2018-06-05T04:09:05.578Z,17.29
2018-06-05T04:11:35.364Z,17.30
2018-06-05T04:14:05.040Z,17.26
2018-06-05T04:16:34.667Z,17.20
2018-06-05T04:19:04.290Z,17.23
2018-06-05T04:21:33.952Z,17.26
2018-06-05T04:24:03.770Z,17.29
2018-06-05T04:26:33.388Z,17.41
2018-06-05T04:29:03.024Z,17.35
2018-06-05T04:31:32.678Z,17.28
2018-06-05T04:34:01.982Z,17.27
2018-06-05T04:36:31.705Z,17.25
2018-06-05T04:39:01.294Z,17.34
2018-06-05T04:41:30.973Z,17.45
2018-06-05T04:44:00.597Z,17.57
2018-06-05T04:46:30.257Z,17.74
2018-06-05T04:48:59.958Z,17.65
2018-06-05T04:51:29.598Z,17.69
2018-06-05T04:53:59.290Z,17.70
2018-06-05T04:56:28.917Z,17.81
2018-06-05T04:58:58.688Z,17.78
2018-06-05T05:01:28.371Z,17.78
2018-06-05T05:03:58.006Z,17.76
2018-06-05T05:06:27.629Z,17.81
2018-06-05T05:08:57.398Z,17.95
2018-06-05T05:11:27.224Z,17.83
2018-06-05T05:13:56.901Z,17.95
2018-06-05T05:16:26.650Z,17.86
2018-06-05T05:18:56.313Z,18.01
2018-06-05T05:21:25.998Z,17.74
2018-06-05T05:23:55.689Z,17.85
2018-06-05T05:26:25.378Z,17.85
2018-06-05T05:28:55.025Z,17.75
2018-06-05T05:31:24.802Z,18.15
2018-06-05T05:33:54.441Z,17.99
2018-06-05T05:36:24.222Z,18.17
2018-06-05T05:38:53.966Z,18.06
2018-06-05T05:41:23.626Z,18.17
2018-06-05T05:43:53.281Z,18.29
2018-06-05T05:46:22.950Z,18.20
2018-06-05T05:48:52.621Z,18.30
2018-06-05T05:51:22.351Z,18.31
2018-06-05T05:53:52.249Z,18.17
2018-06-05T05:56:21.950Z,18.28
2018-06-05T05:58:51.584Z,18.10
2018-06-05T06:01:21.333Z,18.24
2018-06-05T06:03:50.969Z,18.28
2018-06-05T06:06:20.663Z,18.40
2018-06-05T06:08:50.301Z,18.60
2018-06-05T06:11:19.996Z,18.69
2018-06-05T06:13:49.720Z,18.75
2018-06-05T06:16:19.373Z,18.81
2018-06-05T06:18:49.109Z,18.67
2018-06-05T06:21:18.777Z,18.71
2018-06-05T06:23:48.425Z,18.92
2018-06-05T06:26:18.390Z,19.26
2018-06-05T06:28:48.170Z,19.34
2018-06-05T06:31:17.802Z,19.36
2018-06-05T06:33:47.196Z,19.21
2018-06-05T06:36:16.538Z,19.08
2018-06-05T06:38:46.194Z,18.85
2018-06-05T06:41:16.509Z,18.74
2018-06-05T06:43:46.160Z,19.20
2018-06-05T06:46:15.452Z,19.44
2018-06-05T06:48:45.225Z,19.39
2018-06-05T06:51:14.851Z,19.22
2018-06-05T06:53:44.572Z,19.36
2018-06-05T06:56:14.173Z,19.14
2018-06-05T06:58:43.825Z,19.36
2018-06-05T07:01:13.444Z,19.78
2018-06-05T07:03:42.761Z,19.68
2018-06-05T07:06:12.441Z,19.87
2018-06-05T07:08:42.090Z,19.96
2018-06-05T07:11:11.730Z,20.12
2018-06-05T07:13:41.374Z,20.19
2018-06-05T07:16:10.981Z,20.89
2018-06-05T07:18:40.597Z,20.59
2018-06-05T07:21:10.231Z,20.97
2018-06-05T07:23:39.874Z,20.66
2018-06-05T07:26:09.533Z,20.93
2018-06-05T07:28:39.211Z,20.85
2018-06-05T07:31:08.813Z,20.82
2018-06-05T07:33:38.436Z,21.02
2018-06-05T07:36:08.189Z,21.07
2018-06-05T07:38:37.860Z,21.52
2018-06-05T07:41:07.485Z,21.33
2018-06-05T07:43:37.097Z,20.74
2018-06-05T07:46:06.840Z,20.94
2018-06-05T07:48:36.513Z,21.17
2018-06-05T07:51:06.196Z,21.25
2018-06-05T07:53:35.910Z,21.71
2018-06-05T07:56:06.728Z,21.64
2018-06-05T07:58:36.068Z,21.61
2018-06-05T08:01:05.690Z,21.45
2018-06-05T08:03:35.458Z,21.85
2018-06-05T08:06:04.880Z,21.79
2018-06-05T08:08:34.581Z,21.76
2018-06-05T08:11:03.899Z,21.81
2018-06-05T08:13:33.525Z,22.18
2018-06-05T08:16:03.171Z,21.99
2018-06-05T08:18:32.840Z,21.85
2018-06-05T08:21:02.516Z,21.76
2018-06-05T08:23:32.211Z,21.42
2018-06-05T08:26:01.888Z,21.48
2018-06-05T08:28:31.554Z,21.85
2018-06-05T08:31:01.186Z,22.12
2018-06-05T08:33:30.960Z,22.17
2018-06-05T08:36:00.714Z,22.18
2018-06-05T08:38:30.017Z,21.79
2018-06-05T08:40:59.662Z,21.93
2018-06-05T08:43:29.465Z,21.67
2018-06-05T08:45:59.152Z,22.39
2018-06-05T08:48:28.501Z,23.00
2018-06-05T08:50:58.173Z,22.65
2018-06-05T08:53:27.816Z,23.03
2018-06-05T08:55:57.419Z,23.03
2018-06-05T08:58:27.100Z,22.32
2018-06-05T09:00:57.372Z,22.30
2018-06-05T09:03:27.074Z,22.35
2018-06-05T09:05:56.753Z,22.82
2018-06-05T09:08:26.093Z,22.66
2018-06-05T09:10:55.878Z,22.97
2018-06-05T09:13:25.470Z,23.21
2018-06-05T09:15:55.158Z,23.21
2018-06-05T09:18:24.841Z,23.03
2018-06-05T09:20:54.497Z,23.26
2018-06-05T09:23:24.257Z,22.93
2018-06-05T09:25:53.909Z,22.99
2018-06-05T09:28:23.657Z,22.53
2018-06-05T09:30:53.412Z,23.11
2018-06-05T09:33:23.065Z,23.02
2018-06-05T09:35:52.729Z,23.39
2018-06-05T09:38:22.429Z,23.20
2018-06-05T09:40:52.196Z,23.06
2018-06-05T09:43:21.972Z,22.90
2018-06-05T09:45:51.612Z,23.38
2018-06-05T09:48:21.378Z,24.10
2018-06-05T09:50:51.032Z,23.86
2018-06-05T09:53:20.657Z,24.23
2018-06-05T09:55:50.270Z,23.38
2018-06-05T09:58:20.218Z,24.30
2018-06-05T10:00:52.041Z,24.36
2018-06-05T10:03:22.416Z,24.24
2018-06-05T10:05:52.125Z,24.21
2018-06-05T10:08:21.781Z,24.08
2018-06-05T10:10:51.633Z,23.65
2018-06-05T10:13:21.289Z,23.60
2018-06-05T10:15:50.925Z,23.95
2018-06-05T10:18:20.570Z,23.75
2018-06-05T10:20:50.173Z,24.14
2018-06-05T10:23:19.846Z,24.46
2018-06-05T10:25:49.729Z,24.37
2018-06-05T10:28:19.370Z,25.00
2018-06-05T10:30:49.011Z,25.67
2018-06-05T10:33:18.808Z,25.56
2018-06-05T10:35:48.471Z,25.65
2018-06-05T10:38:18.241Z,25.47
2018-06-05T10:40:47.877Z,28.13
2018-06-05T10:43:17.636Z,29.10
2018-06-05T10:45:46.943Z,29.81
2018-06-05T10:48:16.613Z,28.04
2018-06-05T10:50:46.522Z,27.24
2018-06-05T10:53:16.299Z,27.56
2018-06-05T10:55:45.959Z,28.80
2018-06-05T10:58:15.649Z,28.55
2018-06-05T11:00:45.412Z,29.04
2018-06-05T11:03:15.048Z,29.83
2018-06-05T11:05:44.708Z,29.83
2018-06-05T11:08:14.342Z,29.30
2018-06-05T11:10:43.985Z,29.25
2018-06-05T11:13:13.645Z,29.73
2018-06-05T11:15:43.477Z,30.73
2018-06-05T11:18:13.181Z,29.74
2018-06-05T11:20:42.996Z,27.67
2018-06-05T11:23:12.830Z,28.61
2018-06-05T11:25:42.492Z,29.70
2018-06-05T11:28:12.218Z,29.26
2018-06-05T11:30:41.896Z,29.45
2018-06-05T11:33:11.588Z,29.44
2018-06-05T11:35:41.062Z,29.65
2018-06-05T11:38:10.845Z,29.25
2018-06-05T11:40:40.528Z,28.17
2018-06-05T11:43:09.944Z,30.11
2018-06-05T11:45:39.647Z,30.03
2018-06-05T11:48:09.022Z,29.62
2018-06-05T11:50:38.688Z,29.91
2018-06-05T11:53:08.467Z,30.33
2018-06-05T11:55:38.496Z,29.81
2018-06-05T11:58:07.985Z,28.84
2018-06-05T12:00:37.633Z,28.33
2018-06-05T12:03:07.277Z,28.43
2018-06-05T12:05:40.628Z,28.52
2018-06-05T12:08:10.340Z,28.75
2018-06-05T12:10:39.669Z,29.35
2018-06-05T12:13:09.367Z,29.88
2018-06-05T12:15:39.033Z,29.96
2018-06-05T12:18:08.865Z,28.67
2018-06-05T12:20:38.550Z,29.40
2018-06-05T12:23:08.441Z,29.04
2018-06-05T12:25:38.125Z,29.61
2018-06-05T12:28:07.898Z,28.99
2018-06-05T12:30:37.640Z,28.35
2018-06-05T12:33:07.581Z,27.37
2018-06-05T12:35:36.983Z,27.58
2018-06-05T12:38:06.821Z,28.13
2018-06-05T12:40:36.471Z,28.73
2018-06-05T12:43:06.186Z,29.03
2018-06-05T12:45:35.974Z,29.49
2018-06-05T12:48:05.681Z,29.18
2018-06-05T12:50:35.405Z,28.73
2018-06-05T12:53:05.104Z,28.71
2018-06-05T12:55:34.778Z,29.37
2018-06-05T12:58:04.862Z,28.75
2018-06-05T13:00:34.261Z,28.85
2018-06-05T13:03:03.959Z,28.67
2018-06-05T13:05:33.636Z,28.53
2018-06-05T13:08:03.275Z,29.25
2018-06-05T13:10:40.008Z,29.25
2018-06-05T13:13:09.721Z,29.51
2018-06-05T13:15:39.473Z,29.21
2018-06-05T13:18:09.143Z,28.93
2018-06-05T13:20:38.905Z,28.98
2018-06-05T13:23:08.617Z,28.94
2018-06-05T13:25:41.221Z,29.28
2018-06-05T13:28:10.958Z,29.02
2018-06-05T13:30:40.867Z,29.42
2018-06-05T13:33:10.584Z,27.75
2018-06-05T13:35:40.234Z,28.69
2018-06-05T13:38:09.892Z,28.35
2018-06-05T13:40:39.564Z,29.08
2018-06-05T13:43:08.908Z,28.70
2018-06-05T13:45:38.580Z,29.00
2018-06-05T13:48:07.988Z,28.96
2018-06-05T13:50:37.308Z,28.87
2018-06-05T13:53:07.155Z,29.11
2018-06-05T13:55:36.869Z,29.62
2018-06-05T13:58:06.566Z,29.51
2018-06-05T14:00:36.314Z,29.74
2018-06-05T14:03:06.403Z,29.75
2018-06-05T14:05:36.050Z,29.10
2018-06-05T14:08:05.630Z,29.54
2018-06-05T14:10:35.336Z,29.27
2018-06-05T14:13:05.158Z,30.01
2018-06-05T14:15:34.815Z,30.03
2018-06-05T14:18:04.582Z,29.76
2018-06-05T14:20:34.460Z,29.19
2018-06-05T14:23:04.165Z,29.58
2018-06-05T14:25:33.796Z,29.33
2018-06-05T14:28:03.137Z,29.07
2018-06-05T14:30:32.899Z,29.99
2018-06-05T14:33:02.825Z,29.72
2018-06-05T14:35:32.259Z,30.19
2018-06-05T14:38:01.883Z,28.96
2018-06-05T14:40:31.573Z,30.18
2018-06-05T14:43:00.893Z,29.95
2018-06-05T14:45:30.581Z,30.03
2018-06-05T14:48:00.311Z,30.33
2018-06-05T14:50:29.736Z,30.37
2018-06-05T14:52:59.418Z,30.80
2018-06-05T14:55:28.776Z,30.20
2018-06-05T14:57:58.433Z,29.78
2018-06-05T15:00:27.761Z,30.80
2018-06-05T15:02:57.589Z,31.14
2018-06-05T15:05:27.701Z,31.71
2018-06-05T15:07:57.416Z,30.96
2018-06-05T15:10:27.180Z,30.57
2018-06-05T15:12:57.113Z,30.65
2018-06-05T15:15:26.828Z,30.85
2018-06-05T15:17:56.648Z,31.16
2018-06-05T15:20:26.031Z,30.70
2018-06-05T15:22:55.745Z,29.96
2018-06-05T15:25:25.537Z,30.73
2018-06-05T15:27:55.407Z,31.03
2018-06-05T15:30:24.763Z,30.94
2018-06-05T15:32:54.396Z,30.39
2018-06-05T15:35:24.150Z,29.43
2018-06-05T15:37:54.009Z,28.87
2018-06-05T15:40:23.796Z,29.18
2018-06-05T15:42:53.442Z,29.49
2018-06-05T15:45:23.110Z,29.78
2018-06-05T15:47:52.733Z,29.35
2018-06-05T15:50:22.514Z,29.59
2018-06-05T15:52:52.186Z,29.33
2018-06-05T15:55:21.849Z,28.92
2018-06-05T15:57:51.247Z,29.53
2018-06-05T16:00:20.655Z,29.52
2018-06-05T16:02:50.013Z,28.00
2018-06-05T16:05:20.862Z,28.88
2018-06-05T16:07:51.668Z,27.52
2018-06-05T16:10:21.382Z,28.55
2018-06-05T16:12:51.084Z,28.55
2018-06-05T16:15:20.765Z,27.50
2018-06-05T16:17:50.448Z,28.06
2018-06-05T16:20:20.734Z,26.83
2018-06-05T16:22:50.463Z,26.26
2018-06-05T16:25:20.208Z,25.42
2018-06-05T16:27:49.944Z,25.08
2018-06-05T16:30:19.680Z,24.64
2018-06-05T16:32:49.517Z,24.23
2018-06-05T16:35:19.260Z,24.16
2018-06-05T16:37:49.019Z,23.82
2018-06-05T16:40:18.682Z,23.82
2018-06-05T16:42:48.529Z,23.49
2018-06-05T16:45:18.172Z,23.67
2018-06-05T16:47:47.920Z,23.79
2018-06-05T16:50:17.618Z,23.47
2018-06-05T16:52:47.295Z,23.47
2018-06-05T16:55:17.008Z,23.32
2018-06-05T16:57:46.701Z,23.54
2018-06-05T17:00:16.405Z,23.37
2018-06-05T17:02:46.070Z,23.43
2018-06-05T17:05:15.782Z,23.00
2018-06-05T17:07:45.458Z,22.93
2018-06-05T17:10:15.213Z,23.02
2018-06-05T17:12:44.899Z,22.73
2018-06-05T17:15:14.584Z,22.59
2018-06-05T17:17:44.383Z,22.64
2018-06-05T17:20:15.123Z,22.61
2018-06-05T17:22:45.812Z,22.69
2018-06-05T17:25:16.515Z,22.78
2018-06-05T17:27:46.376Z,22.64
2018-06-05T17:30:16.212Z,22.46
2018-06-05T17:32:45.985Z,22.71
2018-06-05T17:35:15.603Z,22.31
2018-06-05T17:37:44.936Z,22.18
2018-06-05T17:40:14.738Z,22.17
2018-06-05T17:42:44.053Z,22.41
2018-06-05T17:45:13.844Z,22.26
2018-06-05T17:47:43.172Z,22.09
2018-06-05T17:50:12.810Z,21.99
2018-06-05T17:52:42.509Z,22.14
2018-06-05T17:55:12.284Z,22.06
2018-06-05T17:57:42.060Z,21.92
2018-06-05T18:00:11.834Z,21.87
2018-06-05T18:02:41.530Z,21.92
2018-06-05T18:05:10.859Z,21.73
2018-06-05T18:07:40.550Z,21.58
2018-06-05T18:10:09.900Z,21.61
2018-06-05T18:12:39.648Z,21.78
2018-06-05T18:15:09.345Z,21.65
2018-06-05T18:17:39.118Z,21.56
2018-06-05T18:20:08.947Z,21.35
2018-06-05T18:22:38.615Z,21.38
2018-06-05T18:25:07.963Z,21.31
2018-06-05T18:27:37.637Z,21.11
2018-06-05T18:30:07.375Z,21.04
2018-06-05T18:32:37.190Z,20.91
2018-06-05T18:35:06.981Z,20.85
2018-06-05T18:37:36.373Z,20.90
2018-06-05T18:40:06.112Z,20.88
2018-06-05T18:42:35.844Z,20.72
2018-06-05T18:45:05.770Z,20.65
2018-06-05T18:47:35.464Z,20.68
2018-06-05T18:50:05.321Z,20.74
2018-06-05T18:52:35.023Z,20.62
2018-06-05T18:55:04.782Z,20.70
2018-06-05T18:57:34.538Z,20.50
2018-06-05T19:00:04.323Z,20.37
2018-06-05T19:02:33.751Z,20.23
2018-06-05T19:05:03.613Z,20.22
2018-06-05T19:07:33.277Z,20.21
2018-06-05T19:10:03.023Z,20.10
2018-06-05T19:12:32.684Z,20.12
2018-06-05T19:15:02.507Z,20.05
2018-06-05T19:17:31.872Z,19.97
2018-06-05T19:20:01.640Z,20.14
2018-06-05T19:22:31.329Z,20.07
2018-06-05T19:25:00.999Z,20.05
2018-06-05T19:27:30.674Z,19.81
2018-06-05T19:30:00.330Z,19.63
2018-06-05T19:32:30.035Z,19.48
2018-06-05T19:34:59.826Z,19.28
2018-06-05T19:37:29.594Z,19.27
2018-06-05T19:39:59.303Z,19.53
2018-06-05T19:42:29.000Z,19.68
2018-06-05T19:44:58.697Z,19.51
2018-06-05T19:47:28.374Z,19.68
2018-06-05T19:49:57.815Z,19.69
2018-06-05T19:52:27.608Z,19.62
2018-06-05T19:54:57.355Z,19.61
2018-06-05T19:57:27.031Z,19.67
2018-06-05T19:59:57.828Z,19.49
2018-06-05T20:02:27.486Z,19.57
2018-06-05T20:04:57.205Z,19.41
2018-06-05T20:07:26.944Z,19.17
2018-06-05T20:09:56.694Z,19.18
2018-06-05T20:12:27.511Z,19.08
2018-06-05T20:14:56.798Z,19.34
2018-06-05T20:17:26.522Z,19.24
2018-06-05T20:19:56.231Z,19.06
2018-06-05T20:22:25.929Z,18.92
2018-06-05T20:24:55.725Z,18.95
2018-06-05T20:27:25.432Z,18.74
2018-06-05T20:29:55.089Z,18.87
2018-06-05T20:32:24.848Z,18.98
2018-06-05T20:34:54.233Z,18.85
2018-06-05T20:37:24.006Z,18.68
2018-06-05T20:39:53.679Z,18.60
2018-06-05T20:42:23.414Z,18.39
2018-06-05T20:44:53.081Z,18.12
2018-06-05T20:47:22.896Z,17.92
2018-06-05T20:49:52.515Z,17.83
2018-06-05T20:52:22.320Z,17.99
2018-06-05T20:54:51.960Z,18.05
2018-06-05T20:57:21.297Z,17.93
2018-06-05T20:59:51.141Z,17.95
2018-06-05T21:02:20.925Z,18.00
2018-06-05T21:04:50.613Z,17.91
2018-06-05T21:07:19.945Z,17.84
2018-06-05T21:09:49.655Z,17.66
2018-06-05T21:12:19.379Z,17.66
2018-06-05T21:14:49.189Z,17.58
2018-06-05T21:17:18.879Z,17.44
2018-06-05T21:19:48.300Z,17.26
2018-06-05T21:22:18.047Z,17.15
2018-06-05T21:24:47.412Z,17.20
2018-06-05T21:27:17.116Z,17.35
2018-06-05T21:29:46.849Z,17.23
2018-06-05T21:32:16.701Z,17.07
2018-06-05T21:34:46.023Z,17.03
2018-06-05T21:37:15.694Z,17.30
2018-06-05T21:39:45.375Z,17.27
2018-06-05T21:42:14.709Z,17.20
2018-06-05T21:44:44.356Z,16.99
2018-06-05T21:47:14.162Z,16.82
2018-06-05T21:49:43.967Z,16.69
2018-06-05T21:52:13.645Z,16.60
2018-06-05T21:54:43.407Z,16.57
2018-06-05T21:57:13.057Z,16.40
2018-06-05T21:59:42.437Z,16.30
2018-06-05T22:02:12.132Z,16.26
2018-06-05T22:04:41.925Z,16.17
2018-06-05T22:07:12.721Z,16.11
2018-06-05T22:09:42.420Z,16.06
2018-06-05T22:12:12.216Z,15.97
2018-06-05T22:14:41.554Z,15.90
2018-06-05T22:17:12.297Z,15.89
2018-06-05T22:19:41.946Z,15.81
2018-06-05T22:22:11.605Z,15.76
2018-06-05T22:24:41.322Z,15.69
2018-06-05T22:27:10.974Z,15.69
2018-06-05T22:29:40.793Z,15.69
2018-06-05T22:32:10.558Z,15.60
2018-06-05T22:34:40.316Z,15.58
2018-06-05T22:37:10.107Z,15.56
2018-06-05T22:39:39.600Z,15.46
2018-06-05T22:42:09.385Z,15.44
2018-06-05T22:44:39.053Z,15.44
2018-06-05T22:47:08.718Z,15.36
2018-06-05T22:49:38.374Z,15.31
2018-06-05T22:52:08.076Z,15.26
2018-06-05T22:54:37.620Z,15.28
2018-06-05T22:57:07.309Z,15.30
2018-06-05T22:59:36.622Z,15.26
2018-06-05T23:02:06.522Z,15.14
2018-06-05T23:04:36.897Z,15.19
2018-06-05T23:07:06.607Z,15.10
2018-06-05T23:09:36.311Z,15.13
2018-06-05T23:12:06.113Z,15.12
2018-06-05T23:14:35.795Z,15.04
2018-06-05T23:17:05.624Z,15.10
2018-06-05T23:19:34.937Z,15.06
2018-06-05T23:22:04.633Z,15.05
2018-06-05T23:24:33.979Z,15.02
2018-06-05T23:27:03.648Z,14.98
2018-06-05T23:29:33.291Z,14.94
2018-06-05T23:32:02.984Z,15.00
2018-06-05T23:34:32.724Z,14.88
2018-06-05T23:37:02.402Z,14.82
2018-06-05T23:39:32.035Z,14.83
2018-06-05T23:42:01.745Z,14.74
2018-06-05T23:44:31.092Z,14.74
2018-06-05T23:47:00.766Z,14.71
2018-06-05T23:49:30.518Z,14.67
2018-06-05T23:52:00.257Z,14.77
2018-06-05T23:54:29.941Z,14.67
2018-06-05T23:56:59.621Z,14.64
2018-06-05T23:59:29.265Z,14.60
